PWSweather.com
Personal Weather Stations
Station Observations
KMIEASTT1
Tawas Bay, East Tawas, MI 48730

Tawas BayEast Tawas, MI 48730

Lat: 44.28, Lon: -83.48

Elevation: 600

Station Type: Davis VantagePro

http://www.tawasbayweather.com

High Low Average
Temperature 52.0°F11.1°C 32.9°F0.5°C 38.8°F3.8°C
Dew Point 36.4°F2.4°C 30.4°F-0.9°C 32.5°F0.3°C
Winds 12.0 mph 19.3 kmh Calm Calm 4.0 mph SW6.4 kmh SW
Wind Gusts 15.0 mph24.1 kmh 1.0 mph1.6 kmh 7.0 mph11.3 kmh
Humidity 94% 47% 80%
Pressure 29.65 in1004.1 mb 29.56 in1001.0 mb -
Precipitation 0.00 in0.0 mm - -
Hour Temp Dew Point Humidity Winds Wind Gusts Pressure Precip Precip Rate Daily Precip Total
12:01 AM 33.9°F1.1°C 30.5°F-0.8°C 87% 7.0 mph SSW11.3 kmh SSW 8.0 mph12.9 kmh 29.61 in1002.7 mb 0.00 in0.0 mm 0.00 in/hr0.0 mm/hr 0.00 in0.0 mm
12:15 AM 33.8°F1.0°C 30.4°F-0.9°C 87% 5.0 mph SW8.0 kmh SW 8.0 mph12.9 kmh 29.60 in1002.4 mb 0.00 in0.0 mm 0.00 in/hr0.0 mm/hr 0.00 in0.0 mm
12:30 AM 33.5°F0.8°C 30.3°F-0.9°C 88% 5.0 mph SW8.0 kmh SW 7.0 mph11.3 kmh 29.60 in1002.4 mb 0.00 in0.0 mm 0.00 in/hr0.0 mm/hr 0.00 in0.0 mm
12:45 AM 33.5°F0.8°C 30.6°F-0.8°C 89% 4.0 mph S6.4 kmh S 5.0 mph8.0 kmh 29.59 in1002.0 mb 0.00 in0.0 mm 0.00 in/hr0.0 mm/hr 0.00 in0.0 mm
01:01 AM 33.6°F0.9°C 30.4°F-0.9°C 88% 6.0 mph S9.7 kmh S 9.0 mph14.5 kmh 29.57 in1001.4 mb 0.00 in0.0 mm 0.00 in/hr0.0 mm/hr 0.00 in0.0 mm
01:15 AM 33.7°F0.9°C 30.5°F-0.8°C 88% 4.0 mph SSW6.4 kmh SSW 9.0 mph14.5 kmh 29.56 in1001.0 mb 0.00 in0.0 mm 0.00 in/hr0.0 mm/hr 0.00 in0.0 mm
01:30 AM 33.9°F1.1°C 30.7°F-0.7°C 88% 6.0 mph SW9.7 kmh SW 9.0 mph14.5 kmh 29.56 in1001.0 mb 0.00 in0.0 mm 0.00 in/hr0.0 mm/hr 0.00 in0.0 mm
01:45 AM 34.6°F1.4°C 30.9°F-0.6°C 86% 6.0 mph WSW9.7 kmh WSW 9.0 mph14.5 kmh 29.56 in1001.0 mb 0.00 in0.0 mm 0.00 in/hr0.0 mm/hr 0.00 in0.0 mm
02:01 AM 34.7°F1.5°C 31.0°F-0.6°C 86% 5.0 mph SW8.0 kmh SW 7.0 mph11.3 kmh 29.56 in1001.0 mb 0.00 in0.0 mm 0.00 in/hr0.0 mm/hr 0.00 in0.0 mm
02:15 AM 34.6°F1.4°C 31.1°F-0.5°C 87% 5.0 mph WSW8.0 kmh WSW 7.0 mph11.3 kmh 29.57 in1001.4 mb 0.00 in0.0 mm 0.00 in/hr0.0 mm/hr 0.00 in0.0 mm
02:31 AM 34.6°F1.4°C 31.1°F-0.5°C 87% 3.0 mph WSW4.8 kmh WSW 8.0 mph12.9 kmh 29.58 in1001.7 mb 0.00 in0.0 mm 0.00 in/hr0.0 mm/hr 0.00 in0.0 mm
02:45 AM 34.7°F1.5°C 31.2°F-0.4°C 87% 6.0 mph SW9.7 kmh SW 8.0 mph12.9 kmh 29.58 in1001.7 mb 0.00 in0.0 mm 0.00 in/hr0.0 mm/hr 0.00 in0.0 mm
03:01 AM 34.2°F1.2°C 31.0°F-0.6°C 88% 3.0 mph SW4.8 kmh SW 6.0 mph9.7 kmh 29.58 in1001.7 mb 0.00 in0.0 mm 0.00 in/hr0.0 mm/hr 0.00 in0.0 mm
03:15 AM 33.5°F0.8°C 30.9°F-0.6°C 90% 3.0 mph S4.8 kmh S 6.0 mph9.7 kmh 29.58 in1001.7 mb 0.00 in0.0 mm 0.00 in/hr0.0 mm/hr 0.00 in0.0 mm
03:30 AM 33.3°F0.7°C 31.2°F-0.4°C 92% 4.0 mph S6.4 kmh S 8.0 mph12.9 kmh 29.58 in1001.7 mb 0.00 in0.0 mm 0.00 in/hr0.0 mm/hr 0.00 in0.0 mm
03:45 AM 33.5°F0.8°C 31.4°F-0.3°C 92% 6.0 mph S9.7 kmh S 6.0 mph9.7 kmh 29.58 in1001.7 mb 0.00 in0.0 mm 0.00 in/hr0.0 mm/hr 0.00 in0.0 mm
04:01 AM 33.5°F0.8°C 31.4°F-0.3°C 92% 3.0 mph S4.8 kmh S 5.0 mph8.0 kmh 29.59 in1002.0 mb 0.00 in0.0 mm 0.00 in/hr0.0 mm/hr 0.00 in0.0 mm
04:15 AM 33.4°F0.8°C 31.6°F-0.2°C 93% 4.0 mph S6.4 kmh S 5.0 mph8.0 kmh 29.59 in1002.0 mb 0.00 in0.0 mm 0.00 in/hr0.0 mm/hr 0.00 in0.0 mm
04:30 AM 33.4°F0.8°C 31.6°F-0.2°C 93% 3.0 mph S4.8 kmh S 4.0 mph6.4 kmh 29.59 in1002.0 mb 0.00 in0.0 mm 0.00 in/hr0.0 mm/hr 0.00 in0.0 mm
04:45 AM 33.2°F0.7°C 31.7°F-0.2°C 94% 3.0 mph S4.8 kmh S 4.0 mph6.4 kmh 29.59 in1002.0 mb 0.00 in0.0 mm 0.00 in/hr0.0 mm/hr 0.00 in0.0 mm
05:01 AM 33.2°F0.7°C 31.7°F-0.2°C 94% 4.0 mph S6.4 kmh S 6.0 mph9.7 kmh 29.59 in1002.0 mb 0.00 in0.0 mm 0.00 in/hr0.0 mm/hr 0.00 in0.0 mm
05:15 AM 33.3°F0.7°C 31.8°F-0.1°C 94% 2.0 mph SSW3.2 kmh SSW 5.0 mph8.0 kmh 29.59 in1002.0 mb 0.00 in0.0 mm 0.00 in/hr0.0 mm/hr 0.00 in0.0 mm
05:30 AM 33.2°F0.7°C 31.7°F-0.2°C 94% 1.0 mph S1.6 kmh S 4.0 mph6.4 kmh 29.58 in1001.7 mb 0.00 in0.0 mm 0.00 in/hr0.0 mm/hr 0.00 in0.0 mm
05:45 AM 32.9°F0.5°C 31.4°F-0.3°C 94% 2.0 mph SSE3.2 kmh SSE 3.0 mph4.8 kmh 29.58 in1001.7 mb 0.00 in0.0 mm 0.00 in/hr0.0 mm/hr 0.00 in0.0 mm
06:01 AM 33.2°F0.7°C 31.7°F-0.2°C 94% 4.0 mph S6.4 kmh S 5.0 mph8.0 kmh 29.58 in1001.7 mb 0.00 in0.0 mm 0.00 in/hr0.0 mm/hr 0.00 in0.0 mm
06:15 AM 33.5°F0.8°C 31.7°F-0.2°C 93% 3.0 mph S4.8 kmh S 4.0 mph6.4 kmh 29.58 in1001.7 mb 0.00 in0.0 mm 0.00 in/hr0.0 mm/hr 0.00 in0.0 mm
06:30 AM 33.6°F0.9°C 31.8°F-0.1°C 93% 2.0 mph S3.2 kmh S 3.0 mph4.8 kmh 29.58 in1001.7 mb 0.00 in0.0 mm 0.00 in/hr0.0 mm/hr 0.00 in0.0 mm
06:45 AM 33.9°F1.1°C 32.1°F0.1°C 93% 3.0 mph S4.8 kmh S 4.0 mph6.4 kmh 29.57 in1001.4 mb 0.00 in0.0 mm 0.00 in/hr0.0 mm/hr 0.00 in0.0 mm
07:01 AM 33.9°F1.1°C 32.1°F0.1°C 93% 5.0 mph S8.0 kmh S 6.0 mph9.7 kmh 29.57 in1001.4 mb 0.00 in0.0 mm 0.00 in/hr0.0 mm/hr 0.00 in0.0 mm
07:15 AM 34.1°F1.2°C 32.3°F0.2°C 93% 6.0 mph S9.7 kmh S 6.0 mph9.7 kmh 29.57 in1001.4 mb 0.00 in0.0 mm 0.00 in/hr0.0 mm/hr 0.00 in0.0 mm
07:30 AM 34.2°F1.2°C 32.4°F0.2°C 93% 6.0 mph S9.7 kmh S 8.0 mph12.9 kmh 29.57 in1001.4 mb 0.00 in0.0 mm 0.00 in/hr0.0 mm/hr 0.00 in0.0 mm
07:45 AM 34.4°F1.3°C 32.6°F0.3°C 93% 6.0 mph SW9.7 kmh SW 9.0 mph14.5 kmh 29.57 in1001.4 mb 0.00 in0.0 mm 0.00 in/hr0.0 mm/hr 0.00 in0.0 mm
08:01 AM 34.7°F1.5°C 32.6°F0.3°C 92% 7.0 mph SSW11.3 kmh SSW 11.0 mph17.7 kmh 29.56 in1001.0 mb 0.00 in0.0 mm 0.00 in/hr0.0 mm/hr 0.00 in0.0 mm
08:15 AM 34.7°F1.5°C 32.6°F0.3°C 92% 7.0 mph SSW11.3 kmh SSW 11.0 mph17.7 kmh 29.56 in1001.0 mb 0.00 in0.0 mm 0.00 in/hr0.0 mm/hr 0.00 in0.0 mm
08:30 AM 34.6°F1.4°C 32.5°F0.3°C 92% 6.0 mph SSW9.7 kmh SSW 9.0 mph14.5 kmh 29.57 in1001.4 mb 0.00 in0.0 mm 0.00 in/hr0.0 mm/hr 0.00 in0.0 mm
08:45 AM 34.4°F1.3°C 32.6°F0.3°C 93% 3.0 mph S4.8 kmh S 9.0 mph14.5 kmh 29.56 in1001.0 mb 0.00 in0.0 mm 0.00 in/hr0.0 mm/hr 0.00 in0.0 mm
09:01 AM 34.2°F1.2°C 32.4°F0.2°C 93% 2.0 mph S3.2 kmh S 4.0 mph6.4 kmh 29.56 in1001.0 mb 0.00 in0.0 mm 0.00 in/hr0.0 mm/hr 0.00 in0.0 mm
09:15 AM 34.0°F1.1°C 32.2°F0.1°C 93% 2.0 mph S3.2 kmh S 3.0 mph4.8 kmh 29.57 in1001.4 mb 0.00 in0.0 mm 0.00 in/hr0.0 mm/hr 0.00 in0.0 mm
09:30 AM 34.2°F1.2°C 32.4°F0.2°C 93% Calm Calm 1.0 mph1.6 kmh 29.57 in1001.4 mb 0.00 in0.0 mm 0.00 in/hr0.0 mm/hr 0.00 in0.0 mm
09:45 AM 34.4°F1.3°C 32.3°F0.2°C 92% 1.0 mph S1.6 kmh S 1.0 mph1.6 kmh 29.57 in1001.4 mb 0.00 in0.0 mm 0.00 in/hr0.0 mm/hr 0.00 in0.0 mm
10:01 AM 34.4°F1.3°C 32.3°F0.2°C 92% 1.0 mph S1.6 kmh S 2.0 mph3.2 kmh 29.57 in1001.4 mb 0.00 in0.0 mm 0.00 in/hr0.0 mm/hr 0.00 in0.0 mm
10:15 AM 34.2°F1.2°C 32.4°F0.2°C 93% 3.0 mph S4.8 kmh S 4.0 mph6.4 kmh 29.58 in1001.7 mb 0.00 in0.0 mm 0.00 in/hr0.0 mm/hr 0.00 in0.0 mm
10:30 AM 34.6°F1.4°C 32.5°F0.3°C 92% 3.0 mph S4.8 kmh S 4.0 mph6.4 kmh 29.58 in1001.7 mb 0.00 in0.0 mm 0.00 in/hr0.0 mm/hr 0.00 in0.0 mm
10:45 AM 35.1°F1.7°C 33.0°F0.6°C 92% 1.0 mph S1.6 kmh S 7.0 mph11.3 kmh 29.59 in1002.0 mb 0.00 in0.0 mm 0.00 in/hr0.0 mm/hr 0.00 in0.0 mm
11:01 AM 35.5°F1.9°C 33.4°F0.8°C 92% 3.0 mph S4.8 kmh S 5.0 mph8.0 kmh 29.59 in1002.0 mb 0.00 in0.0 mm 0.00 in/hr0.0 mm/hr 0.00 in0.0 mm
11:15 AM 35.6°F2.0°C 33.5°F0.8°C 92% 4.0 mph S6.4 kmh S 6.0 mph9.7 kmh 29.59 in1002.0 mb 0.00 in0.0 mm 0.00 in/hr0.0 mm/hr 0.00 in0.0 mm
11:31 AM 35.1°F1.7°C 33.0°F0.6°C 92% 5.0 mph S8.0 kmh S 8.0 mph12.9 kmh 29.60 in1002.4 mb 0.00 in0.0 mm 0.00 in/hr0.0 mm/hr 0.00 in0.0 mm
11:45 AM 35.2°F1.8°C 33.1°F0.6°C 92% 6.0 mph SSW9.7 kmh SSW 7.0 mph11.3 kmh 29.60 in1002.4 mb 0.00 in0.0 mm 0.00 in/hr0.0 mm/hr 0.00 in0.0 mm
12:01 PM 35.3°F1.8°C 33.2°F0.7°C 92% 7.0 mph S11.3 kmh S 7.0 mph11.3 kmh 29.60 in1002.4 mb 0.00 in0.0 mm 0.00 in/hr0.0 mm/hr 0.00 in0.0 mm
12:15 PM 35.2°F1.8°C 33.1°F0.6°C 92% 5.0 mph S8.0 kmh S 7.0 mph11.3 kmh 29.60 in1002.4 mb 0.00 in0.0 mm 0.00 in/hr0.0 mm/hr 0.00 in0.0 mm
12:30 PM 35.4°F1.9°C 33.3°F0.7°C 92% 4.0 mph S6.4 kmh S 6.0 mph9.7 kmh 29.59 in1002.0 mb 0.00 in0.0 mm 0.00 in/hr0.0 mm/hr 0.00 in0.0 mm
12:45 PM 35.7°F2.1°C 33.6°F0.9°C 92% 3.0 mph S4.8 kmh S 6.0 mph9.7 kmh 29.59 in1002.0 mb 0.00 in0.0 mm 0.00 in/hr0.0 mm/hr 0.00 in0.0 mm
01:01 PM 35.9°F2.2°C 33.8°F1.0°C 92% Calm Calm 2.0 mph3.2 kmh 29.59 in1002.0 mb 0.00 in0.0 mm 0.00 in/hr0.0 mm/hr 0.00 in0.0 mm
01:16 PM 36.1°F2.3°C 33.7°F0.9°C 91% 2.0 mph SSE3.2 kmh SSE 4.0 mph6.4 kmh 29.59 in1002.0 mb 0.00 in0.0 mm 0.00 in/hr0.0 mm/hr 0.00 in0.0 mm
01:31 PM 37.2°F2.9°C 34.8°F1.6°C 91% 2.0 mph SE3.2 kmh SE 4.0 mph6.4 kmh 29.59 in1002.0 mb 0.00 in0.0 mm 0.00 in/hr0.0 mm/hr 0.00 in0.0 mm
01:45 PM 38.7°F3.7°C 35.5°F1.9°C 88% 2.0 mph ESE3.2 kmh ESE 4.0 mph6.4 kmh 29.59 in1002.0 mb 0.00 in0.0 mm 0.00 in/hr0.0 mm/hr 0.00 in0.0 mm
02:02 PM 39.0°F3.9°C 35.5°F1.9°C 87% 2.0 mph WSW3.2 kmh WSW 4.0 mph6.4 kmh 29.58 in1001.7 mb 0.00 in0.0 mm 0.00 in/hr0.0 mm/hr 0.00 in0.0 mm
02:15 PM 47.6°F8.7°C 36.4°F2.4°C 65% 11.0 mph W17.7 kmh W 13.0 mph20.9 kmh 29.58 in1001.7 mb 0.00 in0.0 mm 0.00 in/hr0.0 mm/hr 0.00 in0.0 mm
02:31 PM 48.9°F9.4°C 36.1°F2.3°C 61% 9.0 mph WSW14.5 kmh WSW 14.0 mph22.5 kmh 29.57 in1001.4 mb 0.00 in0.0 mm 0.00 in/hr0.0 mm/hr 0.00 in0.0 mm
02:45 PM 50.3°F10.2°C 36.1°F2.3°C 58% 7.0 mph WSW11.3 kmh WSW 11.0 mph17.7 kmh 29.57 in1001.4 mb 0.00 in0.0 mm 0.00 in/hr0.0 mm/hr 0.00 in0.0 mm
03:01 PM 49.3°F9.6°C 35.2°F1.8°C 58% 8.0 mph W12.9 kmh W 10.0 mph16.1 kmh 29.57 in1001.4 mb 0.00 in0.0 mm 0.00 in/hr0.0 mm/hr 0.00 in0.0 mm
03:15 PM 51.0°F10.6°C 35.0°F1.7°C 54% 12.0 mph WSW19.3 kmh WSW 15.0 mph24.1 kmh 29.57 in1001.4 mb 0.00 in0.0 mm 0.00 in/hr0.0 mm/hr 0.00 in0.0 mm
03:30 PM 51.6°F10.9°C 33.6°F0.9°C 50% 9.0 mph WSW14.5 kmh WSW 14.0 mph22.5 kmh 29.57 in1001.4 mb 0.00 in0.0 mm 0.00 in/hr0.0 mm/hr 0.00 in0.0 mm
03:45 PM 46.9°F8.3°C 33.3°F0.7°C 59% 7.0 mph W11.3 kmh W 7.0 mph11.3 kmh 29.58 in1001.7 mb 0.00 in0.0 mm 0.00 in/hr0.0 mm/hr 0.00 in0.0 mm
04:01 PM 48.5°F9.2°C 34.0°F1.1°C 57% 5.0 mph WSW8.0 kmh WSW 13.0 mph20.9 kmh 29.58 in1001.7 mb 0.00 in0.0 mm 0.00 in/hr0.0 mm/hr 0.00 in0.0 mm
04:15 PM 51.4°F10.8°C 32.9°F0.5°C 49% 7.0 mph WSW11.3 kmh WSW 10.0 mph16.1 kmh 29.59 in1002.0 mb 0.00 in0.0 mm 0.00 in/hr0.0 mm/hr 0.00 in0.0 mm
04:31 PM 51.6°F10.9°C 32.6°F0.3°C 48% 7.0 mph WSW11.3 kmh WSW 11.0 mph17.7 kmh 29.60 in1002.4 mb 0.00 in0.0 mm 0.00 in/hr0.0 mm/hr 0.00 in0.0 mm
04:45 PM 52.0°F11.1°C 32.4°F0.2°C 47% 6.0 mph WSW9.7 kmh WSW 10.0 mph16.1 kmh 29.60 in1002.4 mb 0.00 in0.0 mm 0.00 in/hr0.0 mm/hr 0.00 in0.0 mm
05:01 PM 50.4°F10.2°C 32.5°F0.3°C 50% 9.0 mph WSW14.5 kmh WSW 9.0 mph14.5 kmh 29.60 in1002.4 mb 0.00 in0.0 mm 0.00 in/hr0.0 mm/hr 0.00 in0.0 mm
05:15 PM 47.1°F8.4°C 32.2°F0.1°C 56% 5.0 mph WSW8.0 kmh WSW 8.0 mph12.9 kmh 29.61 in1002.7 mb 0.00 in0.0 mm 0.00 in/hr0.0 mm/hr 0.00 in0.0 mm
05:30 PM 48.4°F9.1°C 32.1°F0.1°C 53% 6.0 mph WSW9.7 kmh WSW 10.0 mph16.1 kmh 29.62 in1003.0 mb 0.00 in0.0 mm 0.00 in/hr0.0 mm/hr 0.00 in0.0 mm
05:45 PM 49.7°F9.8°C 31.8°F-0.1°C 50% 3.0 mph W4.8 kmh W 10.0 mph16.1 kmh 29.62 in1003.0 mb 0.00 in0.0 mm 0.00 in/hr0.0 mm/hr 0.00 in0.0 mm
06:01 PM 49.4°F9.7°C 31.6°F-0.2°C 50% 5.0 mph WSW8.0 kmh WSW 8.0 mph12.9 kmh 29.63 in1003.4 mb 0.00 in0.0 mm 0.00 in/hr0.0 mm/hr 0.00 in0.0 mm
06:15 PM 49.0°F9.4°C 31.7°F-0.2°C 51% 6.0 mph WNW9.7 kmh WNW 9.0 mph14.5 kmh 29.63 in1003.4 mb 0.00 in0.0 mm 0.00 in/hr0.0 mm/hr 0.00 in0.0 mm
06:31 PM 48.2°F9.0°C 31.9°F-0.1°C 53% 4.0 mph W6.4 kmh W 6.0 mph9.7 kmh 29.63 in1003.4 mb 0.00 in0.0 mm 0.00 in/hr0.0 mm/hr 0.00 in0.0 mm
06:45 PM 47.9°F8.8°C 31.6°F-0.2°C 53% 2.0 mph W3.2 kmh W 5.0 mph8.0 kmh 29.64 in1003.7 mb 0.00 in0.0 mm 0.00 in/hr0.0 mm/hr 0.00 in0.0 mm
07:01 PM 47.4°F8.6°C 31.6°F-0.2°C 54% 2.0 mph WNW3.2 kmh WNW 3.0 mph4.8 kmh 29.64 in1003.7 mb 0.00 in0.0 mm 0.00 in/hr0.0 mm/hr 0.00 in0.0 mm
07:15 PM 46.7°F8.2°C 31.9°F-0.1°C 56% 1.0 mph WNW1.6 kmh WNW 2.0 mph3.2 kmh 29.65 in1004.1 mb 0.00 in0.0 mm 0.00 in/hr0.0 mm/hr 0.00 in0.0 mm
07:30 PM 46.5°F8.1°C 32.1°F0.1°C 57% Calm Calm 1.0 mph1.6 kmh 29.65 in1004.1 mb 0.00 in0.0 mm 0.00 in/hr0.0 mm/hr 0.00 in0.0 mm
07:45 PM 45.4°F7.4°C 31.9°F-0.1°C 59% Calm Calm 2.0 mph3.2 kmh 29.65 in1004.1 mb 0.00 in0.0 mm 0.00 in/hr0.0 mm/hr 0.00 in0.0 mm
08:01 PM 40.3°F4.6°C 32.4°F0.2°C 73% 1.0 mph SSE1.6 kmh SSE 3.0 mph4.8 kmh 29.65 in1004.1 mb 0.00 in0.0 mm 0.00 in/hr0.0 mm/hr 0.00 in0.0 mm
08:15 PM 38.7°F3.7°C 33.1°F0.6°C 80% 2.0 mph SSE3.2 kmh SSE 2.0 mph3.2 kmh 29.65 in1004.1 mb 0.00 in0.0 mm 0.00 in/hr0.0 mm/hr 0.00 in0.0 mm
08:30 PM 38.0°F3.3°C 33.3°F0.7°C 83% 2.0 mph SW3.2 kmh SW 3.0 mph4.8 kmh 29.65 in1004.1 mb 0.00 in0.0 mm 0.00 in/hr0.0 mm/hr 0.00 in0.0 mm
08:45 PM 38.8°F3.8°C 33.2°F0.7°C 80% Calm Calm 1.0 mph1.6 kmh 29.66 in1004.4 mb 0.00 in0.0 mm 0.00 in/hr0.0 mm/hr 0.00 in0.0 mm
09:01 PM 39.7°F4.3°C 33.4°F0.8°C 78% Calm Calm -- 29.66 in1004.4 mb 0.00 in0.0 mm 0.00 in/hr0.0 mm/hr 0.00 in0.0 mm
09:15 PM 41.5°F5.3°C 32.8°F0.4°C 71% 2.0 mph NW3.2 kmh NW 4.0 mph6.4 kmh 29.66 in1004.4 mb 0.00 in0.0 mm 0.00 in/hr0.0 mm/hr 0.00 in0.0 mm
09:30 PM 42.2°F5.7°C 32.8°F0.4°C 69% 1.0 mph NW1.6 kmh NW 2.0 mph3.2 kmh 29.66 in1004.4 mb 0.00 in0.0 mm 0.00 in/hr0.0 mm/hr 0.00 in0.0 mm
09:45 PM 41.6°F5.3°C 32.6°F0.3°C 70% Calm Calm 1.0 mph1.6 kmh 29.67 in1004.7 mb 0.00 in0.0 mm 0.00 in/hr0.0 mm/hr 0.00 in0.0 mm
10:01 PM 41.3°F5.2°C 32.3°F0.2°C 70% Calm Calm 1.0 mph1.6 kmh 29.67 in1004.7 mb 0.00 in0.0 mm 0.00 in/hr0.0 mm/hr 0.00 in0.0 mm
10:15 PM 40.7°F4.8°C 32.4°F0.2°C 72% Calm Calm 2.0 mph3.2 kmh 29.67 in1004.7 mb 0.00 in0.0 mm 0.00 in/hr0.0 mm/hr 0.00 in0.0 mm
10:30 PM 40.4°F4.7°C 32.1°F0.1°C 72% Calm Calm -- 29.68 in1005.1 mb 0.00 in0.0 mm 0.00 in/hr0.0 mm/hr 0.00 in0.0 mm
10:45 PM 37.6°F3.1°C 32.0°F0.0°C 80% 1.0 mph E1.6 kmh E 3.0 mph4.8 kmh 29.68 in1005.1 mb 0.00 in0.0 mm 0.00 in/hr0.0 mm/hr 0.00 in0.0 mm
11:01 PM 38.4°F3.6°C 32.2°F0.1°C 78% 1.0 mph E1.6 kmh E 3.0 mph4.8 kmh 29.68 in1005.1 mb 0.00 in0.0 mm 0.00 in/hr0.0 mm/hr 0.00 in0.0 mm
11:15 PM 37.7°F3.2°C 32.7°F0.4°C 82% 3.0 mph E4.8 kmh E 5.0 mph8.0 kmh 29.68 in1005.1 mb 0.00 in0.0 mm 0.00 in/hr0.0 mm/hr 0.00 in0.0 mm
11:30 PM 37.3°F2.9°C 33.8°F1.0°C 87% 2.0 mph ESE3.2 kmh ESE 5.0 mph8.0 kmh 29.68 in1005.1 mb 0.00 in0.0 mm 0.00 in/hr0.0 mm/hr 0.00 in0.0 mm
11:45 PM 37.8°F3.2°C 34.0°F1.1°C 86% 1.0 mph ESE1.6 kmh ESE 2.0 mph3.2 kmh 29.67 in1004.7 mb 0.00 in0.0 mm 0.00 in/hr0.0 mm/hr 0.00 in0.0 mm